createdAt,value
2022-12-01T00:00:00.307Z,16.08
2022-12-01T00:02:30.712Z,16.08
2022-12-01T00:04:58.195Z,15.93
2022-12-01T00:07:25.495Z,15.52
2022-12-01T00:10:13.320Z,15.35
2022-12-01T00:12:43.553Z,16.42
2022-12-01T00:15:11.519Z,15.93
2022-12-01T00:17:39.354Z,15.85
2022-12-01T00:20:07.701Z,15.95
2022-12-01T00:22:35.093Z,16.23
2022-12-01T00:25:02.462Z,15.88
2022-12-01T00:27:29.820Z,15.98
2022-12-01T00:29:57.229Z,15.05
2022-12-01T00:32:24.454Z,16.23
2022-12-01T00:34:51.869Z,16.15
2022-12-01T00:37:19.108Z,15.10
2022-12-01T00:39:47.285Z,16.60
2022-12-01T00:42:14.840Z,15.32
2022-12-01T00:44:42.200Z,16.30
2022-12-01T00:47:09.537Z,15.23
2022-12-01T00:49:36.886Z,16.45
2022-12-01T00:52:04.299Z,15.45
2022-12-01T00:54:32.264Z,17.25
2022-12-01T00:57:00.395Z,16.67
2022-12-01T00:59:27.812Z,15.63
2022-12-01T01:01:55.232Z,16.05
2022-12-01T01:04:22.649Z,16.80
2022-12-01T01:06:50.082Z,17.70
2022-12-01T01:09:17.715Z,16.45
2022-12-01T01:11:44.875Z,16.20
2022-12-01T01:14:12.185Z,16.65
2022-12-01T01:16:39.610Z,17.00
2022-12-01T01:19:07.044Z,16.98
2022-12-01T01:21:34.289Z,15.50
2022-12-01T01:24:01.976Z,16.52
2022-12-01T01:26:30.840Z,16.83
2022-12-01T01:28:59.253Z,15.40
2022-12-01T01:31:27.557Z,16.00
2022-12-01T01:33:55.906Z,16.83
2022-12-01T01:36:24.010Z,17.33
2022-12-01T01:38:51.963Z,16.85
2022-12-01T01:41:19.976Z,16.95
2022-12-01T01:43:51.639Z,15.77
2022-12-01T01:46:25.448Z,17.17
2022-12-01T01:49:00.164Z,17.63
2022-12-01T01:51:30.471Z,16.98
2022-12-01T01:53:59.956Z,16.52
2022-12-01T01:56:27.289Z,16.10
2022-12-01T01:58:55.012Z,17.25
2022-12-01T02:01:22.575Z,16.58
2022-12-01T02:03:51.686Z,17.48
2022-12-01T02:06:19.140Z,17.60
2022-12-01T02:08:46.605Z,16.42
2022-12-01T02:11:31.495Z,17.52
2022-12-01T02:14:06.640Z,19.17
2022-12-01T02:16:54.132Z,18.48
2022-12-01T02:19:30.595Z,17.02
2022-12-01T02:22:09.486Z,18.25
2022-12-01T02:24:53.032Z,17.90
2022-12-01T02:27:31.624Z,18.17
2022-12-01T02:30:02.355Z,19.35
2022-12-01T02:32:29.683Z,18.30
2022-12-01T02:34:59.917Z,18.13
2022-12-01T02:37:32.076Z,18.02
2022-12-01T02:40:27.593Z,17.60
2022-12-01T02:43:15.183Z,17.27
2022-12-01T02:45:46.396Z,17.20
2022-12-01T02:48:16.972Z,17.73
2022-12-01T02:50:45.099Z,16.92
2022-12-01T02:53:13.704Z,17.65
2022-12-01T02:55:48.161Z,19.35
2022-12-01T02:58:16.098Z,18.48
2022-12-01T03:00:49.808Z,17.92
2022-12-01T03:03:35.675Z,18.27
2022-12-01T03:06:12.593Z,18.05
2022-12-01T03:08:48.908Z,17.45
2022-12-01T03:11:27.325Z,17.90
2022-12-01T03:14:04.522Z,19.38
2022-12-01T03:16:39.843Z,19.55
2022-12-01T03:19:10.884Z,19.15
2022-12-01T03:21:48.771Z,19.25
2022-12-01T03:24:18.068Z,20.00
2022-12-01T03:26:48.372Z,19.42
2022-12-01T03:29:18.991Z,19.65
2022-12-01T03:31:49.442Z,19.38
2022-12-01T03:34:25.115Z,19.45
2022-12-01T03:36:56.746Z,19.40
2022-12-01T03:39:27.058Z,18.40
2022-12-01T03:41:57.231Z,18.95
2022-12-01T03:44:27.619Z,18.55
2022-12-01T03:46:58.210Z,19.15
2022-12-01T03:49:26.913Z,18.17
2022-12-01T03:51:56.919Z,20.30
2022-12-01T03:54:31.561Z,17.92
2022-12-01T03:57:03.090Z,19.42
2022-12-01T03:59:31.255Z,18.85
2022-12-01T04:01:59.035Z,19.33
2022-12-01T04:04:26.574Z,18.23
2022-12-01T04:06:53.963Z,18.33
2022-12-01T04:09:21.522Z,18.80
2022-12-01T04:12:07.773Z,18.33
2022-12-01T04:14:35.294Z,18.90
2022-12-01T04:17:03.240Z,18.15
2022-12-01T04:19:30.629Z,18.63
2022-12-01T04:21:58.020Z,18.70
2022-12-01T04:24:25.409Z,18.33
2022-12-01T04:26:52.634Z,18.95
2022-12-01T04:29:20.135Z,19.20
2022-12-01T04:31:47.508Z,18.25
2022-12-01T04:34:14.833Z,18.48
2022-12-01T04:36:42.169Z,17.90
2022-12-01T04:39:09.671Z,17.58
2022-12-01T04:41:36.890Z,18.10
2022-12-01T04:44:04.382Z,17.73
2022-12-01T04:46:31.703Z,18.92
2022-12-01T04:48:59.130Z,16.90
2022-12-01T04:51:26.510Z,18.48
2022-12-01T04:53:54.008Z,18.30
2022-12-01T04:56:21.198Z,18.35
2022-12-01T04:58:48.623Z,18.45
2022-12-01T05:01:16.547Z,19.40
2022-12-01T05:03:45.331Z,18.83
2022-12-01T05:06:14.387Z,17.95
2022-12-01T05:08:42.028Z,18.90
2022-12-01T05:11:11.652Z,19.77
2022-12-01T05:13:42.970Z,18.30
2022-12-01T05:16:15.242Z,17.70
2022-12-01T05:18:43.155Z,17.25
2022-12-01T05:21:11.676Z,19.17
2022-12-01T05:23:39.426Z,18.63
2022-12-01T05:26:07.796Z,18.20
2022-12-01T05:28:35.363Z,18.33
2022-12-01T05:31:03.130Z,18.40
2022-12-01T05:33:30.702Z,19.65
2022-12-01T05:35:58.103Z,19.23
2022-12-01T05:38:25.515Z,19.25
2022-12-01T05:40:54.074Z,17.40
2022-12-01T05:43:27.154Z,19.02
2022-12-01T05:45:57.083Z,18.95
2022-12-01T05:48:24.584Z,18.88
2022-12-01T05:50:52.199Z,20.67
2022-12-01T05:53:20.248Z,18.83
2022-12-01T05:55:47.601Z,21.27
2022-12-01T05:58:14.810Z,19.98
2022-12-01T06:00:45.921Z,21.20
2022-12-01T06:03:13.764Z,19.33
2022-12-01T06:05:41.303Z,20.92
2022-12-01T06:08:08.952Z,20.50
2022-12-01T06:10:36.326Z,19.88
2022-12-01T06:13:03.669Z,19.92
2022-12-01T06:15:31.026Z,20.15
2022-12-01T06:18:04.767Z,20.30
2022-12-01T06:20:34.792Z,19.85
2022-12-01T06:23:02.178Z,18.77
2022-12-01T06:25:29.531Z,19.50
2022-12-01T06:27:59.778Z,19.02
2022-12-01T06:30:27.304Z,20.27
2022-12-01T06:32:54.519Z,19.05
2022-12-01T06:35:22.017Z,19.58
2022-12-01T06:37:49.478Z,20.33
2022-12-01T06:40:16.968Z,20.27
2022-12-01T06:42:44.335Z,18.70
2022-12-01T06:45:11.906Z,19.02
2022-12-01T06:47:39.309Z,18.58
2022-12-01T06:50:08.955Z,18.48
2022-12-01T06:52:37.085Z,18.50
2022-12-01T06:55:05.316Z,19.40
2022-12-01T06:57:32.860Z,18.90
2022-12-01T07:00:00.345Z,19.83
2022-12-01T07:02:27.917Z,19.05
2022-12-01T07:04:55.320Z,18.33
2022-12-01T07:07:22.702Z,19.17
2022-12-01T07:09:50.283Z,19.40
2022-12-01T07:12:17.823Z,18.88
2022-12-01T07:14:46.062Z,18.95
2022-12-01T07:17:13.301Z,18.08
2022-12-01T07:19:40.722Z,18.90
2022-12-01T07:22:07.951Z,17.80
2022-12-01T07:24:36.214Z,18.13
2022-12-01T07:27:03.906Z,18.17
2022-12-01T07:29:31.204Z,18.45
2022-12-01T07:31:58.456Z,17.90
2022-12-01T07:34:25.865Z,18.48
2022-12-01T07:36:53.138Z,18.98
2022-12-01T07:39:20.552Z,18.63
2022-12-01T07:41:48.120Z,19.45
2022-12-01T07:44:15.492Z,18.17
2022-12-01T07:46:42.966Z,17.67
2022-12-01T07:49:11.948Z,18.85
2022-12-01T07:51:39.153Z,18.92
2022-12-01T07:54:07.157Z,18.60
2022-12-01T07:56:34.518Z,18.65
2022-12-01T07:59:01.950Z,17.33
2022-12-01T08:01:29.242Z,18.85
2022-12-01T08:03:57.470Z,18.25
2022-12-01T08:06:25.791Z,18.00
2022-12-01T08:08:53.231Z,16.63
2022-12-01T08:11:22.362Z,18.20
2022-12-01T08:13:49.981Z,16.63
2022-12-01T08:16:18.298Z,16.35
2022-12-01T08:18:46.038Z,17.33
2022-12-01T08:21:14.782Z,17.83
2022-12-01T08:23:42.830Z,17.35
2022-12-01T08:26:14.996Z,20.05
2022-12-01T08:28:45.042Z,20.35
2022-12-01T08:31:16.747Z,22.25
2022-12-01T08:33:44.133Z,21.52
2022-12-01T08:36:11.414Z,22.83
2022-12-01T08:38:38.944Z,22.98
2022-12-01T08:41:07.645Z,23.58
2022-12-01T08:46:32.731Z,24.25
2022-12-01T08:49:00.417Z,25.90
2022-12-01T08:51:27.692Z,26.15
2022-12-01T08:53:58.032Z,25.83
2022-12-01T08:56:29.611Z,25.55
2022-12-01T08:58:58.078Z,25.58
2022-12-01T09:01:28.713Z,27.27
2022-12-01T09:04:07.848Z,25.00
2022-12-01T09:06:39.073Z,28.10
2022-12-01T09:09:06.645Z,26.42
2022-12-01T09:11:34.054Z,26.45
2022-12-01T09:14:01.467Z,28.30
2022-12-01T09:16:28.789Z,27.20
2022-12-01T09:18:56.568Z,25.92
2022-12-01T09:21:25.382Z,24.38
2022-12-01T09:23:52.858Z,24.88
2022-12-01T09:26:20.451Z,24.65
2022-12-01T09:28:48.558Z,25.58
2022-12-01T09:31:16.563Z,25.48
2022-12-01T09:33:44.021Z,26.30
2022-12-01T09:36:11.609Z,26.02
2022-12-01T09:38:39.317Z,24.50
2022-12-01T09:41:09.144Z,26.17
2022-12-01T09:43:45.733Z,25.55
2022-12-01T09:46:17.998Z,24.85
2022-12-01T09:48:47.797Z,24.08
2022-12-01T09:51:19.942Z,24.90
2022-12-01T09:53:49.337Z,24.70
2022-12-01T09:56:24.229Z,23.52
2022-12-01T09:58:55.497Z,25.40
2022-12-01T10:01:27.940Z,24.25
2022-12-01T10:03:57.818Z,24.27
2022-12-01T10:06:45.445Z,30.92
2022-12-01T10:09:24.577Z,47.08
2022-12-01T10:11:54.486Z,76.30
2022-12-01T10:14:22.545Z,39.97
2022-12-01T10:16:56.348Z,25.20
2022-12-01T10:19:32.959Z,19.88
2022-12-01T10:22:16.815Z,19.83
2022-12-01T10:25:04.354Z,18.65
2022-12-01T10:27:34.568Z,17.40
2022-12-01T10:30:05.048Z,17.95
2022-12-01T10:32:32.726Z,18.88
2022-12-01T10:35:00.542Z,18.70
2022-12-01T10:37:31.377Z,18.23
2022-12-01T10:39:59.305Z,17.85
2022-12-01T10:42:26.731Z,18.70
2022-12-01T10:44:54.918Z,18.38
2022-12-01T10:47:23.370Z,16.60
2022-12-01T10:49:51.052Z,16.83
2022-12-01T10:52:35.701Z,17.23
2022-12-01T10:55:04.549Z,17.00
2022-12-01T10:57:32.173Z,17.23
2022-12-01T11:00:04.252Z,17.00
2022-12-01T11:02:32.236Z,16.02
2022-12-01T11:05:01.859Z,13.65
2022-12-01T11:07:31.050Z,14.90
2022-12-01T11:10:02.768Z,13.88
2022-12-01T11:12:30.216Z,14.50
2022-12-01T11:14:57.731Z,14.88
2022-12-01T11:17:27.990Z,14.50
2022-12-01T11:19:55.334Z,16.27
2022-12-01T11:22:26.814Z,16.40
2022-12-01T11:24:54.316Z,16.52
2022-12-01T11:27:23.280Z,16.33
2022-12-01T11:29:52.649Z,15.35
2022-12-01T11:32:27.125Z,16.30
2022-12-01T11:35:14.886Z,14.82
2022-12-01T11:37:54.904Z,13.98
2022-12-01T11:40:32.274Z,14.13
2022-12-01T11:43:01.393Z,13.13
2022-12-01T11:45:33.354Z,13.45
2022-12-01T11:48:02.824Z,12.98
2022-12-01T11:50:31.591Z,14.45
2022-12-01T11:52:59.106Z,14.82
2022-12-01T11:55:27.834Z,15.23
2022-12-01T11:58:00.586Z,15.60
2022-12-01T12:01:00.356Z,14.57
2022-12-01T12:03:34.567Z,13.93
2022-12-01T12:09:11.689Z,13.80
2022-12-01T12:11:43.267Z,14.32
2022-12-01T12:14:29.425Z,15.13
2022-12-01T12:17:16.305Z,14.18
2022-12-01T12:20:07.226Z,14.43
2022-12-01T12:22:44.802Z,14.80
2022-12-01T12:25:30.802Z,14.52
2022-12-01T12:28:01.146Z,14.73
2022-12-01T12:30:32.170Z,14.32
2022-12-01T12:33:05.689Z,15.05
2022-12-01T12:35:33.041Z,15.02
2022-12-01T12:38:03.354Z,15.57
2022-12-01T12:40:33.929Z,15.65
2022-12-01T12:43:04.497Z,15.93
2022-12-01T12:45:56.168Z,16.65
2022-12-01T12:48:32.740Z,15.73
2022-12-01T12:51:08.368Z,15.23
2022-12-01T12:53:46.816Z,16.00
2022-12-01T12:56:16.194Z,16.85
2022-12-01T12:58:56.507Z,15.73
2022-12-01T13:01:26.769Z,15.10
2022-12-01T13:03:57.222Z,15.18
2022-12-01T13:06:44.784Z,15.95
2022-12-01T13:09:15.357Z,16.17
2022-12-01T13:11:47.227Z,14.82
2022-12-01T13:14:23.651Z,14.88
2022-12-01T13:16:53.089Z,15.23
2022-12-01T13:19:23.162Z,15.13
2022-12-01T13:21:51.951Z,15.00
2022-12-01T13:24:23.358Z,15.00
2022-12-01T13:26:53.655Z,15.07
2022-12-01T13:29:23.179Z,14.90
2022-12-01T13:31:51.610Z,15.07
2022-12-01T13:34:24.770Z,15.05
2022-12-01T13:36:52.662Z,13.98
2022-12-01T13:39:19.882Z,15.02
2022-12-01T13:41:47.673Z,13.98
2022-12-01T13:44:20.210Z,14.35
2022-12-01T13:46:47.908Z,14.80
2022-12-01T13:49:34.418Z,12.73
2022-12-01T13:52:20.352Z,13.50
2022-12-01T13:55:01.381Z,13.80
2022-12-01T13:57:30.199Z,13.30
2022-12-01T14:00:00.225Z,13.98
2022-12-01T14:02:29.860Z,13.73
2022-12-01T14:05:19.304Z,13.50
2022-12-01T14:07:46.729Z,13.80
2022-12-01T14:10:17.298Z,13.35
2022-12-01T14:12:46.617Z,13.30
2022-12-01T14:15:25.650Z,12.30
2022-12-01T14:18:00.841Z,12.93
2022-12-01T14:20:28.552Z,14.23
2022-12-01T14:23:04.843Z,12.90
2022-12-01T14:25:32.385Z,13.75
2022-12-01T14:28:03.658Z,13.57
2022-12-01T14:30:40.523Z,12.15
2022-12-01T14:33:27.612Z,13.30
2022-12-01T14:35:58.765Z,13.20
2022-12-01T14:38:26.757Z,12.80
2022-12-01T14:41:22.588Z,13.63
2022-12-01T14:44:05.273Z,14.18
2022-12-01T14:46:53.081Z,13.95
2022-12-01T14:49:28.952Z,14.00
2022-12-01T14:51:59.808Z,14.20
2022-12-01T14:54:29.794Z,14.13
2022-12-01T14:57:05.611Z,13.40
2022-12-01T14:59:34.243Z,14.52
2022-12-01T15:02:08.981Z,14.18
2022-12-01T15:07:04.249Z,14.38
2022-12-01T15:09:34.620Z,15.38
2022-12-01T15:12:04.112Z,13.73
2022-12-01T15:14:32.798Z,14.65
2022-12-01T15:17:00.233Z,15.93
2022-12-01T15:19:32.045Z,14.18
2022-12-01T15:22:00.405Z,15.43
2022-12-01T15:24:30.993Z,15.40
2022-12-01T15:27:03.777Z,14.55
2022-12-01T15:29:33.446Z,15.63
2022-12-01T15:32:07.032Z,15.80
2022-12-01T15:34:38.899Z,15.63
2022-12-01T15:37:08.678Z,16.00
2022-12-01T15:39:37.618Z,15.48
2022-12-01T15:42:05.180Z,15.50
2022-12-01T15:44:36.261Z,16.10
2022-12-01T15:47:22.438Z,16.00
2022-12-01T15:49:50.309Z,14.57
2022-12-01T15:52:18.693Z,15.88
2022-12-01T15:54:50.029Z,15.48
2022-12-01T15:57:19.300Z,16.58
2022-12-01T15:59:47.640Z,15.90
2022-12-01T16:02:21.173Z,15.95
2022-12-01T16:04:49.489Z,15.38
2022-12-01T16:07:16.964Z,16.70
2022-12-01T16:09:55.835Z,15.95
2022-12-01T16:12:24.940Z,15.68
2022-12-01T16:14:52.585Z,16.13
2022-12-01T16:17:20.272Z,18.23
2022-12-01T16:19:47.538Z,17.45
2022-12-01T16:22:22.432Z,21.58
2022-12-01T16:24:51.760Z,21.98
2022-12-01T16:27:26.629Z,21.00
2022-12-01T16:29:54.945Z,18.27
2022-12-01T16:32:32.229Z,17.25
2022-12-01T16:34:59.878Z,17.27
2022-12-01T16:37:27.873Z,17.33
2022-12-01T16:39:55.306Z,17.27
2022-12-01T16:42:23.084Z,16.15
2022-12-01T16:44:51.611Z,17.27
2022-12-01T16:47:21.056Z,16.20
2022-12-01T16:49:48.440Z,16.60
2022-12-01T16:52:43.020Z,16.52
2022-12-01T16:55:03.108Z,15.15
2022-12-01T16:57:30.294Z,15.57
2022-12-01T16:59:57.522Z,14.55
2022-12-01T17:02:24.887Z,15.05
2022-12-01T17:04:52.430Z,14.98
2022-12-01T17:07:19.968Z,14.27
2022-12-01T17:09:47.714Z,15.63
2022-12-01T17:12:14.902Z,14.27
2022-12-01T17:14:42.412Z,15.95
2022-12-01T17:17:10.050Z,15.20
2022-12-01T17:19:37.354Z,15.57
2022-12-01T17:22:04.599Z,16.17
2022-12-01T17:24:32.044Z,15.45
2022-12-01T17:26:59.372Z,13.93
2022-12-01T17:29:26.666Z,14.10
2022-12-01T17:31:54.158Z,13.73
2022-12-01T17:34:21.472Z,14.73
2022-12-01T17:36:48.684Z,15.70
2022-12-01T17:39:16.167Z,16.17
2022-12-01T17:41:43.706Z,15.60
2022-12-01T17:44:10.991Z,14.07
2022-12-01T17:46:38.709Z,16.25
2022-12-01T17:49:09.436Z,16.20
2022-12-01T17:51:40.337Z,15.20
2022-12-01T17:54:07.688Z,15.48
2022-12-01T17:56:35.152Z,16.52
2022-12-01T17:59:02.985Z,16.58
2022-12-01T18:01:30.828Z,16.92
2022-12-01T18:03:59.123Z,18.63
2022-12-01T18:06:27.014Z,18.90
2022-12-01T18:08:54.951Z,17.05
2022-12-01T18:11:22.874Z,15.70
2022-12-01T18:13:51.469Z,15.75
2022-12-01T18:16:20.324Z,17.35
2022-12-01T18:18:47.919Z,18.08
2022-12-01T18:21:16.905Z,15.98
2022-12-01T18:23:49.676Z,16.05
2022-12-01T18:26:17.281Z,17.73
2022-12-01T18:28:44.688Z,16.52
2022-12-01T18:31:13.238Z,16.55
2022-12-01T18:33:41.891Z,16.23
2022-12-01T18:36:14.408Z,16.10
2022-12-01T18:38:42.172Z,17.23
2022-12-01T18:41:09.734Z,17.17
2022-12-01T18:43:37.100Z,16.65
2022-12-01T18:46:05.439Z,17.13
2022-12-01T18:48:33.330Z,17.65
2022-12-01T18:51:04.023Z,17.55
2022-12-01T18:53:31.538Z,19.08
2022-12-01T18:56:03.324Z,17.67
2022-12-01T18:58:30.932Z,18.45
2022-12-01T19:00:58.343Z,17.48
2022-12-01T19:03:26.492Z,16.27
2022-12-01T19:05:53.769Z,16.42
2022-12-01T19:08:21.317Z,16.98
2022-12-01T19:10:58.681Z,17.38
2022-12-01T19:13:26.182Z,18.90
2022-12-01T19:15:53.512Z,19.13
2022-12-01T19:18:20.994Z,19.63
2022-12-01T19:20:48.611Z,20.00
2022-12-01T19:23:16.181Z,19.45
2022-12-01T19:25:43.526Z,17.08
2022-12-01T19:28:11.156Z,18.23
2022-12-01T19:30:42.870Z,16.85
2022-12-01T19:33:14.800Z,16.30
2022-12-01T19:35:42.366Z,16.48
2022-12-01T19:38:10.821Z,17.42
2022-12-01T19:40:38.920Z,15.70
2022-12-01T19:43:06.307Z,17.80
2022-12-01T19:45:35.508Z,15.27
2022-12-01T19:48:04.216Z,15.40
2022-12-01T19:50:34.129Z,15.25
2022-12-01T19:53:01.802Z,16.70
2022-12-01T19:55:29.315Z,15.85
2022-12-01T19:57:56.724Z,15.52
2022-12-01T20:00:25.839Z,15.63
2022-12-01T20:02:53.432Z,15.38
2022-12-01T20:05:20.693Z,13.80
2022-12-01T20:07:48.214Z,15.30
2022-12-01T20:10:20.217Z,16.55
2022-12-01T20:12:48.077Z,16.42
2022-12-01T20:15:15.975Z,15.98
2022-12-01T20:17:43.951Z,15.23
2022-12-01T20:20:11.910Z,16.95
2022-12-01T20:22:39.601Z,15.80
2022-12-01T20:25:07.409Z,15.05
2022-12-01T20:27:34.845Z,16.15
2022-12-01T20:30:02.178Z,16.67
2022-12-01T20:32:30.039Z,20.70
2022-12-01T20:34:57.417Z,23.33
2022-12-01T20:37:24.784Z,133.52
2022-12-01T20:39:52.360Z,70.53
2022-12-01T20:42:22.298Z,79.35
2022-12-01T20:44:49.955Z,99.60
2022-12-01T20:47:21.247Z,90.38
2022-12-01T20:49:48.657Z,44.80
2022-12-01T20:52:15.975Z,31.77
2022-12-01T20:54:44.832Z,40.42
2022-12-01T20:57:12.124Z,17.73
2022-12-01T20:59:39.655Z,16.42
2022-12-01T21:02:06.959Z,14.43
2022-12-01T21:04:34.310Z,22.25
2022-12-01T21:07:01.570Z,15.82
2022-12-01T21:09:29.196Z,15.40
2022-12-01T21:12:15.993Z,14.60
2022-12-01T21:14:45.510Z,15.20
2022-12-01T21:17:31.584Z,15.85
2022-12-01T21:20:07.115Z,14.07
2022-12-01T21:22:34.456Z,15.60
2022-12-01T21:25:11.683Z,15.20
2022-12-01T21:27:39.070Z,15.23
2022-12-01T21:30:15.282Z,15.27
2022-12-01T21:32:48.705Z,15.48
2022-12-01T21:35:19.755Z,16.08
2022-12-01T21:37:47.800Z,15.35
2022-12-01T21:40:17.564Z,14.52
2022-12-01T21:42:45.172Z,15.48
2022-12-01T21:45:18.508Z,14.60
2022-12-01T21:47:45.956Z,15.35
2022-12-01T21:50:17.308Z,15.05
2022-12-01T21:52:45.366Z,14.10
2022-12-01T21:55:15.664Z,15.50
2022-12-01T21:57:44.704Z,14.75
2022-12-01T22:00:24.607Z,15.25
2022-12-01T22:02:53.374Z,14.25
2022-12-01T22:05:39.322Z,15.45
2022-12-01T22:08:15.529Z,15.27
2022-12-01T22:10:57.900Z,15.00
2022-12-01T22:13:26.854Z,13.73
2022-12-01T22:15:55.297Z,14.70
2022-12-01T22:18:42.497Z,14.27
2022-12-01T22:21:27.722Z,14.52
2022-12-01T22:24:00.248Z,14.35
2022-12-01T22:26:27.700Z,13.85
2022-12-01T22:28:56.996Z,12.65
2022-12-01T22:31:24.668Z,14.48
2022-12-01T22:34:00.051Z,14.70
2022-12-01T22:36:31.819Z,13.13
2022-12-01T22:38:59.513Z,13.35
2022-12-01T22:41:28.717Z,14.50
2022-12-01T22:43:56.844Z,14.45
2022-12-01T22:46:24.211Z,12.95
2022-12-01T22:49:02.426Z,14.18
2022-12-01T22:51:31.553Z,13.48
2022-12-01T22:54:00.518Z,13.95
2022-12-01T22:56:30.705Z,13.70
2022-12-01T22:58:58.273Z,13.25
2022-12-01T23:01:27.337Z,14.50
2022-12-01T23:04:13.404Z,14.23
2022-12-01T23:06:53.161Z,14.73
2022-12-01T23:09:21.574Z,14.55
2022-12-01T23:12:11.623Z,14.10
2022-12-01T23:14:49.564Z,15.07
2022-12-01T23:17:25.091Z,14.30
2022-12-01T23:19:53.622Z,14.10
2022-12-01T23:22:20.860Z,14.10
2022-12-01T23:24:48.404Z,14.93
2022-12-01T23:27:17.490Z,14.02
2022-12-01T23:29:44.953Z,12.23
2022-12-01T23:32:12.579Z,14.65
2022-12-01T23:34:40.264Z,13.35
2022-12-01T23:37:16.245Z,14.30
2022-12-01T23:39:43.580Z,14.27
2022-12-01T23:42:12.747Z,14.40
2022-12-01T23:44:47.514Z,14.80
2022-12-01T23:47:20.101Z,14.00
2022-12-01T23:49:48.066Z,14.30
2022-12-01T23:52:19.093Z,14.32
2022-12-01T23:54:47.059Z,14.13
2022-12-01T23:57:20.617Z,14.38
2022-12-01T23:59:48.993Z,15.40
